createdAt,value
2023-05-10T00:01:15.815Z,61.24
2023-05-10T00:03:42.592Z,61.25
2023-05-10T00:06:09.428Z,61.40
2023-05-10T00:08:36.153Z,61.28
2023-05-10T00:11:02.807Z,61.10
2023-05-10T00:13:29.539Z,60.84
2023-05-10T00:15:56.217Z,60.58
2023-05-10T00:18:22.819Z,60.14
2023-05-10T00:20:49.933Z,60.03
2023-05-10T00:23:16.634Z,59.91
2023-05-10T00:25:43.261Z,59.89
2023-05-10T00:28:09.871Z,59.55
2023-05-10T00:30:37.788Z,59.41
2023-05-10T00:33:04.405Z,59.22
2023-05-10T00:35:31.094Z,59.13
2023-05-10T00:37:57.820Z,58.88
2023-05-10T00:40:24.513Z,58.12
2023-05-10T00:42:54.480Z,58.21
2023-05-10T00:45:21.508Z,57.81
2023-05-10T00:47:48.512Z,57.85
2023-05-10T00:50:16.698Z,57.62
2023-05-10T00:52:43.972Z,57.65
2023-05-10T00:55:13.273Z,57.30
2023-05-10T00:57:40.656Z,57.52
2023-05-10T01:00:08.835Z,57.37
2023-05-10T01:02:36.251Z,57.04
2023-05-10T01:05:07.045Z,57.20
2023-05-10T01:07:33.664Z,57.14
2023-05-10T01:10:01.404Z,57.08
2023-05-10T01:12:28.490Z,57.11
2023-05-10T01:14:55.919Z,57.09
2023-05-10T01:17:23.502Z,57.33
2023-05-10T01:19:50.438Z,57.50
2023-05-10T01:22:31.970Z,57.42
2023-05-10T01:25:24.065Z,57.17
2023-05-10T01:27:59.757Z,57.25
2023-05-10T01:30:26.605Z,57.27
2023-05-10T01:33:10.729Z,57.64
2023-05-10T01:35:51.614Z,57.74
2023-05-10T01:38:48.285Z,57.74
2023-05-10T01:41:25.531Z,58.02
2023-05-10T01:44:02.528Z,58.24
2023-05-10T01:46:38.555Z,58.38
2023-05-10T01:49:30.288Z,58.89
2023-05-10T01:52:05.015Z,59.11
2023-05-10T01:54:34.068Z,59.04
2023-05-10T01:57:06.577Z,59.44
2023-05-10T01:59:42.266Z,59.44
2023-05-10T02:02:13.340Z,59.68
2023-05-10T02:04:41.402Z,59.71
2023-05-10T02:07:09.866Z,59.86
2023-05-10T02:09:38.153Z,59.91
2023-05-10T02:12:07.408Z,60.20
2023-05-10T02:14:37.650Z,60.17
2023-05-10T02:17:08.758Z,60.21
2023-05-10T02:19:38.713Z,60.20
2023-05-10T02:22:06.696Z,60.70
2023-05-10T02:24:35.669Z,61.07
2023-05-10T02:27:04.620Z,61.43
2023-05-10T02:29:33.492Z,62.15
2023-05-10T02:32:01.445Z,62.16
2023-05-10T02:34:29.212Z,62.65
2023-05-10T02:36:56.358Z,62.52
2023-05-10T02:39:24.492Z,62.88
2023-05-10T02:41:52.996Z,63.37
2023-05-10T02:44:21.532Z,63.94
2023-05-10T02:46:49.001Z,64.15
2023-05-10T02:49:16.616Z,64.62
2023-05-10T02:51:50.130Z,64.85
2023-05-10T02:54:21.195Z,64.48
2023-05-10T02:56:53.930Z,64.30
2023-05-10T02:59:20.738Z,64.31
2023-05-10T03:01:47.423Z,64.67
2023-05-10T03:04:14.265Z,65.15
2023-05-10T03:06:41.946Z,65.42
2023-05-10T03:09:10.519Z,66.34
2023-05-10T03:12:03.009Z,67.02
2023-05-10T03:14:44.481Z,67.10
2023-05-10T03:17:16.892Z,66.86
2023-05-10T03:19:52.749Z,67.26
2023-05-10T03:22:31.738Z,67.39
2023-05-10T03:24:59.267Z,67.34
2023-05-10T03:27:29.153Z,67.65
2023-05-10T03:29:57.710Z,68.43
2023-05-10T03:32:24.820Z,68.36
2023-05-10T03:34:51.505Z,68.36
2023-05-10T03:37:18.184Z,68.64
2023-05-10T03:39:44.973Z,69.01
2023-05-10T03:42:13.026Z,69.52
2023-05-10T03:44:40.840Z,69.62
2023-05-10T03:47:07.630Z,69.96
2023-05-10T03:49:34.536Z,69.80
2023-05-10T03:52:02.031Z,69.30
2023-05-10T03:54:28.752Z,68.92
2023-05-10T03:56:55.522Z,68.77
2023-05-10T03:59:22.280Z,68.68
2023-05-10T04:01:48.886Z,68.81
2023-05-10T04:04:15.698Z,68.81
2023-05-10T04:06:42.426Z,68.50
2023-05-10T04:09:09.627Z,68.58
2023-05-10T04:11:36.260Z,68.21
2023-05-10T04:14:02.947Z,67.90
2023-05-10T04:16:29.930Z,67.99
2023-05-10T04:18:56.626Z,68.32
2023-05-10T04:21:23.300Z,68.35
2023-05-10T04:23:50.032Z,68.54
2023-05-10T04:26:16.675Z,68.74
2023-05-10T04:28:43.236Z,68.68
2023-05-10T04:31:11.256Z,68.56
2023-05-10T04:33:38.152Z,68.49
2023-05-10T04:36:05.159Z,68.10
2023-05-10T04:38:31.920Z,68.38
2023-05-10T04:41:08.593Z,68.08
2023-05-10T04:43:35.565Z,68.40
2023-05-10T04:46:02.374Z,68.51
2023-05-10T04:48:29.225Z,68.61
2023-05-10T04:50:56.167Z,68.26
2023-05-10T04:53:23.337Z,68.33
2023-05-10T04:55:49.969Z,68.14
2023-05-10T04:58:17.008Z,68.12
2023-05-10T05:00:43.648Z,68.38
2023-05-10T05:03:10.759Z,68.53
2023-05-10T05:05:37.662Z,68.37
2023-05-10T05:08:04.501Z,68.48
2023-05-10T05:10:31.434Z,68.59
2023-05-10T05:12:58.073Z,68.77
2023-05-10T05:15:24.739Z,69.14
2023-05-10T05:17:51.569Z,69.24
2023-05-10T05:20:20.018Z,69.44
2023-05-10T05:22:46.856Z,69.20
2023-05-10T05:25:13.707Z,69.28
2023-05-10T05:27:40.380Z,69.26
2023-05-10T05:30:08.140Z,69.30
2023-05-10T05:32:35.224Z,68.98
2023-05-10T05:35:02.122Z,69.13
2023-05-10T05:37:28.724Z,69.42
2023-05-10T05:39:56.129Z,69.46
2023-05-10T05:42:22.761Z,69.51
2023-05-10T05:44:49.528Z,69.75
2023-05-10T05:47:16.226Z,69.78
2023-05-10T05:49:42.981Z,70.07
2023-05-10T05:52:09.658Z,70.42
2023-05-10T05:54:36.384Z,70.50
2023-05-10T05:57:03.130Z,70.97
2023-05-10T05:59:29.793Z,71.50
2023-05-10T06:01:56.439Z,71.61
2023-05-10T06:04:23.652Z,71.47
2023-05-10T06:06:50.396Z,71.40
2023-05-10T06:09:17.099Z,71.00
2023-05-10T06:11:44.011Z,70.95
2023-05-10T06:14:10.805Z,70.78
2023-05-10T06:16:37.903Z,70.81
2023-05-10T06:19:05.039Z,70.84
2023-05-10T06:21:31.710Z,71.00
2023-05-10T06:23:58.375Z,70.92
2023-05-10T06:26:26.467Z,71.21
2023-05-10T06:28:53.114Z,71.08
2023-05-10T06:31:19.856Z,71.14
2023-05-10T06:33:46.535Z,71.22
2023-05-10T06:36:14.348Z,71.29
2023-05-10T06:38:41.173Z,70.94
2023-05-10T06:41:07.786Z,70.94
2023-05-10T06:43:36.546Z,71.26
2023-05-10T06:46:03.216Z,71.73
2023-05-10T06:48:29.935Z,71.70
2023-05-10T06:50:56.674Z,71.67
2023-05-10T06:53:23.418Z,72.08
2023-05-10T06:55:50.672Z,72.01
2023-05-10T06:58:17.692Z,71.84
2023-05-10T07:00:44.971Z,71.69
2023-05-10T07:03:12.131Z,71.83
2023-05-10T07:05:38.902Z,71.79
2023-05-10T07:08:05.576Z,72.27
2023-05-10T07:10:32.188Z,72.71
2023-05-10T07:12:59.010Z,72.80
2023-05-10T07:15:25.751Z,72.66
2023-05-10T07:17:53.330Z,72.92
2023-05-10T07:20:20.467Z,72.99
2023-05-10T07:22:47.113Z,73.68
2023-05-10T07:25:13.844Z,74.07
2023-05-10T07:27:40.480Z,74.83
2023-05-10T07:30:08.148Z,74.72
2023-05-10T07:32:34.752Z,74.59
2023-05-10T07:35:01.453Z,74.67
2023-05-10T07:37:28.051Z,74.35
2023-05-10T07:39:54.664Z,74.57
2023-05-10T07:42:21.309Z,74.97
2023-05-10T07:44:48.265Z,75.40
2023-05-10T07:47:14.863Z,75.13
2023-05-10T07:49:41.906Z,75.34
2023-05-10T07:52:08.529Z,75.47
2023-05-10T07:54:35.193Z,75.54
2023-05-10T07:57:01.906Z,75.70
2023-05-10T07:59:28.552Z,75.51
2023-05-10T08:01:55.300Z,75.76
2023-05-10T08:04:21.905Z,76.06
2023-05-10T08:06:48.664Z,76.38
2023-05-10T08:09:15.403Z,76.06
2023-05-10T08:11:42.094Z,75.93
2023-05-10T08:14:08.726Z,76.16
2023-05-10T08:16:35.673Z,76.09
2023-05-10T08:19:02.586Z,75.89
2023-05-10T08:21:29.408Z,75.98
2023-05-10T08:23:56.037Z,76.16
2023-05-10T08:26:22.797Z,76.13
2023-05-10T08:28:49.550Z,75.87
2023-05-10T08:31:16.784Z,75.84
2023-05-10T08:33:44.538Z,75.69
2023-05-10T08:36:11.734Z,75.39
2023-05-10T08:38:38.961Z,75.34
2023-05-10T08:41:06.465Z,75.53
2023-05-10T08:43:33.384Z,75.57
2023-05-10T08:46:06.258Z,75.04
2023-05-10T08:48:35.506Z,74.81
2023-05-10T08:51:05.176Z,74.69
2023-05-10T08:53:34.138Z,74.58
2023-05-10T08:56:03.376Z,74.33
2023-05-10T08:58:30.711Z,74.39
2023-05-10T09:00:58.123Z,74.67
2023-05-10T09:03:24.802Z,74.43
2023-05-10T09:05:51.787Z,74.59
2023-05-10T09:08:18.754Z,74.67
2023-05-10T09:10:48.236Z,74.70
2023-05-10T09:13:16.777Z,74.79
2023-05-10T09:15:45.947Z,74.65
2023-05-10T09:18:13.609Z,74.98
2023-05-10T09:20:41.247Z,74.80
2023-05-10T09:23:08.377Z,74.79
2023-05-10T09:25:35.056Z,74.75
2023-05-10T09:28:01.884Z,74.78
2023-05-10T09:30:32.262Z,74.23
2023-05-10T09:33:00.714Z,74.04
2023-05-10T09:35:32.771Z,73.77
2023-05-10T09:38:01.443Z,73.96
2023-05-10T09:40:29.852Z,73.53
2023-05-10T09:43:04.004Z,73.50
2023-05-10T09:45:37.747Z,73.57
2023-05-10T09:48:06.313Z,73.68
2023-05-10T09:50:33.185Z,74.33
2023-05-10T09:53:01.849Z,74.32
2023-05-10T09:55:45.833Z,74.80
2023-05-10T09:58:13.892Z,74.47
2023-05-10T10:00:46.021Z,74.32
2023-05-10T10:03:18.549Z,74.11
2023-05-10T10:05:46.340Z,74.60
2023-05-10T10:08:14.050Z,74.52
2023-05-10T10:10:41.931Z,73.86
2023-05-10T10:13:09.129Z,74.05
2023-05-10T10:15:36.189Z,74.19
2023-05-10T10:18:05.249Z,74.53
2023-05-10T10:20:32.449Z,74.81
2023-05-10T10:22:59.082Z,75.19
2023-05-10T10:25:26.615Z,75.45
2023-05-10T10:27:53.275Z,75.20
2023-05-10T10:30:35.022Z,75.19
2023-05-10T10:33:13.163Z,75.03
2023-05-10T10:35:46.640Z,74.99
2023-05-10T10:38:17.581Z,75.50
2023-05-10T10:40:44.288Z,75.72
2023-05-10T10:43:28.143Z,75.96
2023-05-10T10:46:18.136Z,75.66
2023-05-10T10:48:49.616Z,75.75
2023-05-10T10:51:16.340Z,75.86
2023-05-10T10:53:44.463Z,76.11
2023-05-10T10:56:14.715Z,76.24
2023-05-10T10:58:42.461Z,75.98
2023-05-10T11:01:17.841Z,76.05
2023-05-10T11:03:59.613Z,75.55
2023-05-10T11:06:34.541Z,74.62
2023-05-10T11:09:13.435Z,74.55
2023-05-10T11:11:56.426Z,75.10
2023-05-10T11:14:23.665Z,74.92
2023-05-10T11:16:50.849Z,75.46
2023-05-10T11:19:19.015Z,75.57
2023-05-10T11:21:51.026Z,75.32
2023-05-10T11:24:28.100Z,75.39
2023-05-10T11:26:55.186Z,75.77
2023-05-10T11:29:21.816Z,75.16
2023-05-10T11:31:50.193Z,74.84
2023-05-10T11:34:34.971Z,74.83
2023-05-10T11:37:02.336Z,74.75
2023-05-10T11:39:30.696Z,74.95
2023-05-10T11:41:58.944Z,74.61
2023-05-10T11:44:33.171Z,74.64
2023-05-10T11:47:01.735Z,74.86
2023-05-10T11:49:28.766Z,75.22
2023-05-10T11:52:06.207Z,75.13
2023-05-10T11:54:32.939Z,75.13
2023-05-10T11:56:59.626Z,75.08
2023-05-10T11:59:26.231Z,74.83
2023-05-10T12:01:53.004Z,74.71
2023-05-10T12:04:20.263Z,74.43
2023-05-10T12:06:47.824Z,73.96
2023-05-10T12:09:16.737Z,73.78
2023-05-10T12:11:44.759Z,74.01
2023-05-10T12:14:12.449Z,74.07
2023-05-10T12:16:39.198Z,73.99
2023-05-10T12:19:06.530Z,74.17
2023-05-10T12:21:34.454Z,74.39
2023-05-10T12:24:04.054Z,74.26
2023-05-10T12:26:31.370Z,74.08
2023-05-10T12:29:18.732Z,74.08
2023-05-10T12:32:00.531Z,74.42
2023-05-10T12:34:35.935Z,74.09
2023-05-10T12:37:05.491Z,74.54
2023-05-10T12:39:42.587Z,74.79
2023-05-10T12:42:09.520Z,75.14
2023-05-10T12:44:36.210Z,75.34
2023-05-10T12:47:02.790Z,75.67
2023-05-10T12:49:29.328Z,75.62
2023-05-10T12:51:55.865Z,75.92
2023-05-10T12:54:22.477Z,76.19
2023-05-10T12:56:48.991Z,76.44
2023-05-10T12:59:15.565Z,76.30
2023-05-10T13:01:42.281Z,76.20
2023-05-10T13:04:08.987Z,75.93
2023-05-10T13:06:36.221Z,75.92
2023-05-10T13:09:03.401Z,75.95
2023-05-10T13:11:29.979Z,75.79
2023-05-10T13:13:56.546Z,76.07
2023-05-10T13:16:23.758Z,76.17
2023-05-10T13:18:50.425Z,76.16
2023-05-10T13:21:17.599Z,76.16
2023-05-10T13:23:44.108Z,75.96
2023-05-10T13:26:10.739Z,75.81
2023-05-10T13:28:39.649Z,76.06
2023-05-10T13:31:06.328Z,76.52
2023-05-10T13:33:32.933Z,77.08
2023-05-10T13:35:59.599Z,76.83
2023-05-10T13:38:26.681Z,76.96
2023-05-10T13:40:53.895Z,76.92
2023-05-10T13:43:20.663Z,76.66
2023-05-10T13:45:47.483Z,76.66
2023-05-10T13:48:14.106Z,76.69
2023-05-10T13:50:41.109Z,76.94
2023-05-10T13:53:07.722Z,77.00
2023-05-10T13:55:34.744Z,77.35
2023-05-10T13:58:01.280Z,77.61
2023-05-10T14:00:28.248Z,77.66
2023-05-10T14:02:55.200Z,77.65
2023-05-10T14:05:25.344Z,77.69
2023-05-10T14:07:52.974Z,77.63
2023-05-10T14:10:19.591Z,77.56
2023-05-10T14:12:46.128Z,77.32
2023-05-10T14:15:12.756Z,77.23
2023-05-10T14:17:39.437Z,77.19
2023-05-10T14:20:07.143Z,77.19
2023-05-10T14:22:33.806Z,77.15
2023-05-10T14:25:00.661Z,77.17
2023-05-10T14:27:27.321Z,77.26
2023-05-10T14:29:54.378Z,77.29
2023-05-10T14:32:21.009Z,77.42
2023-05-10T14:34:47.651Z,77.60
2023-05-10T14:37:15.630Z,77.76
2023-05-10T14:39:43.385Z,77.73
2023-05-10T14:42:10.016Z,77.98
2023-05-10T14:44:36.539Z,77.74
2023-05-10T14:47:03.420Z,78.50
2023-05-10T14:49:30.252Z,78.51
2023-05-10T14:51:56.864Z,78.39
2023-05-10T14:54:23.447Z,78.08
2023-05-10T14:56:50.994Z,78.34
2023-05-10T14:59:17.640Z,78.27
2023-05-10T15:01:45.210Z,78.28
2023-05-10T15:04:13.945Z,78.62
2023-05-10T15:06:41.956Z,78.38
2023-05-10T15:09:08.490Z,78.27
2023-05-10T15:11:35.027Z,78.15
2023-05-10T15:14:02.709Z,78.21
2023-05-10T15:16:29.509Z,78.14
2023-05-10T15:18:56.286Z,78.07
2023-05-10T15:21:22.906Z,78.13
2023-05-10T15:23:49.852Z,78.28
2023-05-10T15:26:16.440Z,78.42
2023-05-10T15:28:42.957Z,78.19
2023-05-10T15:31:09.614Z,78.14
2023-05-10T15:33:38.192Z,78.17
2023-05-10T15:36:05.143Z,77.75
2023-05-10T15:38:32.515Z,77.85
2023-05-10T15:40:59.184Z,78.08
2023-05-10T15:43:26.826Z,77.84
2023-05-10T15:45:53.394Z,78.05
2023-05-10T15:48:19.974Z,78.11
2023-05-10T15:50:46.603Z,78.21
2023-05-10T15:53:13.261Z,78.54
2023-05-10T15:55:40.327Z,78.60
2023-05-10T15:58:06.905Z,78.58
2023-05-10T16:00:33.701Z,78.72
2023-05-10T16:03:00.884Z,78.59
2023-05-10T16:05:31.899Z,78.63
2023-05-10T16:07:58.547Z,78.95
2023-05-10T16:10:25.297Z,78.99
2023-05-10T16:12:52.037Z,79.22
2023-05-10T16:15:19.022Z,79.23
2023-05-10T16:17:46.114Z,79.34
2023-05-10T16:20:12.942Z,78.96
2023-05-10T16:22:39.631Z,79.01
2023-05-10T16:25:06.676Z,79.13
2023-05-10T16:27:33.679Z,79.36
2023-05-10T16:30:00.333Z,79.58
2023-05-10T16:32:27.126Z,79.50
2023-05-10T16:34:53.869Z,79.32
2023-05-10T16:37:20.927Z,79.18
2023-05-10T16:39:48.272Z,79.34
2023-05-10T16:42:14.998Z,79.54
2023-05-10T16:44:42.400Z,79.51
2023-05-10T16:47:09.016Z,79.72
2023-05-10T16:49:37.384Z,79.74
2023-05-10T16:52:04.094Z,79.85
2023-05-10T16:54:31.099Z,79.86
2023-05-10T16:56:57.697Z,79.78
2023-05-10T16:59:24.419Z,79.74
2023-05-10T17:01:53.325Z,79.78
2023-05-10T17:04:20.324Z,79.90
2023-05-10T17:06:46.924Z,80.34
2023-05-10T17:09:13.695Z,80.25
2023-05-10T17:11:40.321Z,80.33
2023-05-10T17:14:07.404Z,80.44
2023-05-10T17:16:34.114Z,80.14
2023-05-10T17:19:01.444Z,80.05
2023-05-10T17:21:28.119Z,79.77
2023-05-10T17:23:54.791Z,79.98
2023-05-10T17:26:22.469Z,79.98
2023-05-10T17:28:49.143Z,79.88
2023-05-10T17:31:15.856Z,79.76
2023-05-10T17:33:42.651Z,79.83
2023-05-10T17:36:09.338Z,79.89
2023-05-10T17:38:36.432Z,79.86
2023-05-10T17:41:03.112Z,79.64
2023-05-10T17:43:29.692Z,79.86
2023-05-10T17:45:56.369Z,80.06
2023-05-10T17:48:23.203Z,80.67
2023-05-10T17:50:52.932Z,80.89
2023-05-10T17:53:19.629Z,80.95
2023-05-10T17:55:47.040Z,80.68
2023-05-10T17:58:13.758Z,80.72
2023-05-10T18:00:40.636Z,80.85
2023-05-10T18:03:07.338Z,80.83
2023-05-10T18:05:38.872Z,81.03
2023-05-10T18:08:06.032Z,81.09
2023-05-10T18:10:32.788Z,81.09
2023-05-10T18:12:59.577Z,81.17
2023-05-10T18:15:27.655Z,81.28
2023-05-10T18:17:54.408Z,81.33
2023-05-10T18:20:21.071Z,81.27
2023-05-10T18:22:47.678Z,81.28
2023-05-10T18:25:14.451Z,81.31
2023-05-10T18:27:41.460Z,81.43
2023-05-10T18:30:10.174Z,81.34
2023-05-10T18:32:38.424Z,81.08
2023-05-10T18:35:07.022Z,81.04
2023-05-10T18:37:34.463Z,81.13
2023-05-10T18:40:01.126Z,81.15
2023-05-10T18:42:28.085Z,81.19
2023-05-10T18:44:55.342Z,81.23
2023-05-10T18:47:22.867Z,81.27
2023-05-10T18:49:49.792Z,81.44
2023-05-10T18:52:16.386Z,81.13
2023-05-10T18:54:43.054Z,81.38
2023-05-10T18:57:10.857Z,81.26
2023-05-10T18:59:37.516Z,81.09
2023-05-10T19:02:04.997Z,81.04
2023-05-10T19:04:31.930Z,80.82
2023-05-10T19:07:00.454Z,80.79
2023-05-10T19:09:27.708Z,80.99
2023-05-10T19:11:54.857Z,81.21
2023-05-10T19:14:21.620Z,81.40
2023-05-10T19:16:53.251Z,81.10
2023-05-10T19:19:21.510Z,80.95
2023-05-10T19:21:49.516Z,80.98
2023-05-10T19:24:17.208Z,80.97
2023-05-10T19:26:48.467Z,80.93
2023-05-10T19:29:15.590Z,80.98
2023-05-10T19:31:43.620Z,80.96
2023-05-10T19:34:11.845Z,80.87
2023-05-10T19:36:40.037Z,81.21
2023-05-10T19:39:06.973Z,81.14
2023-05-10T19:41:33.620Z,81.07
2023-05-10T19:44:00.452Z,81.13
2023-05-10T19:46:27.510Z,80.98
2023-05-10T19:48:54.171Z,80.94
2023-05-10T19:51:20.817Z,81.00
2023-05-10T19:53:48.978Z,80.66
2023-05-10T19:56:18.277Z,80.83
2023-05-10T19:58:46.933Z,81.14
2023-05-10T20:01:13.955Z,81.04
2023-05-10T20:03:40.866Z,81.00
2023-05-10T20:06:09.103Z,81.01
2023-05-10T20:08:35.975Z,81.26
2023-05-10T20:11:03.920Z,80.95
2023-05-10T20:13:31.994Z,80.86
2023-05-10T20:16:00.027Z,80.95
2023-05-10T20:18:27.132Z,80.95
2023-05-10T20:20:58.815Z,80.97
2023-05-10T20:23:27.333Z,81.00
2023-05-10T20:25:54.892Z,80.95
2023-05-10T20:28:26.341Z,80.95
2023-05-10T20:30:56.693Z,81.01
2023-05-10T20:33:24.702Z,80.83
2023-05-10T20:35:52.509Z,80.94
2023-05-10T20:38:19.198Z,81.13
2023-05-10T20:40:47.751Z,80.92
2023-05-10T20:43:14.652Z,80.85
2023-05-10T20:45:42.677Z,80.78
2023-05-10T20:48:09.864Z,80.90
2023-05-10T20:50:36.513Z,80.89
2023-05-10T20:53:03.197Z,81.14
2023-05-10T20:55:30.191Z,81.32
2023-05-10T20:57:57.270Z,81.35
2023-05-10T21:00:24.569Z,81.43
2023-05-10T21:02:51.563Z,81.31
2023-05-10T21:05:18.874Z,81.27
2023-05-10T21:07:45.748Z,81.25
2023-05-10T21:10:12.802Z,81.30
2023-05-10T21:12:39.520Z,81.41
2023-05-10T21:15:06.834Z,81.53
2023-05-10T21:17:33.863Z,81.69
2023-05-10T21:20:00.554Z,82.01
2023-05-10T21:22:30.308Z,82.01
2023-05-10T21:24:58.313Z,81.67
2023-05-10T21:27:25.014Z,81.69
2023-05-10T21:29:52.268Z,81.64
2023-05-10T21:32:18.964Z,81.85
2023-05-10T21:34:45.715Z,81.75
2023-05-10T21:37:12.326Z,81.70
2023-05-10T21:39:38.907Z,81.42
2023-05-10T21:42:05.566Z,81.21
2023-05-10T21:44:32.558Z,81.59
2023-05-10T21:46:59.200Z,81.54
2023-05-10T21:49:26.099Z,81.45
2023-05-10T21:51:52.935Z,81.55
2023-05-10T21:54:19.626Z,81.47
2023-05-10T21:56:46.400Z,81.47
2023-05-10T21:59:16.130Z,81.50
2023-05-10T22:01:43.947Z,81.17
2023-05-10T22:04:10.753Z,81.15
2023-05-10T22:06:37.422Z,81.09
2023-05-10T22:09:05.103Z,81.06
2023-05-10T22:11:31.673Z,80.98
2023-05-10T22:13:58.676Z,81.12
2023-05-10T22:16:25.469Z,81.02
2023-05-10T22:18:54.218Z,81.10
2023-05-10T22:21:21.477Z,81.01
2023-05-10T22:23:48.095Z,81.01
2023-05-10T22:26:14.677Z,80.93
2023-05-10T22:28:41.688Z,80.90
2023-05-10T22:31:12.990Z,80.81
2023-05-10T22:33:39.721Z,80.69
2023-05-10T22:36:06.870Z,80.56
2023-05-10T22:38:33.488Z,80.62
2023-05-10T22:41:00.154Z,80.60
2023-05-10T22:43:27.006Z,80.63
2023-05-10T22:45:53.641Z,80.47
2023-05-10T22:48:21.008Z,80.35
2023-05-10T22:50:47.630Z,80.32
2023-05-10T22:53:14.240Z,80.14
2023-05-10T22:55:41.220Z,80.03
2023-05-10T22:58:08.017Z,79.92
2023-05-10T23:00:34.742Z,79.89
2023-05-10T23:03:02.048Z,79.84
2023-05-10T23:05:28.760Z,79.94
2023-05-10T23:07:55.413Z,79.90
2023-05-10T23:10:22.434Z,79.91
2023-05-10T23:12:49.105Z,79.81
2023-05-10T23:15:15.816Z,79.83
2023-05-10T23:17:42.515Z,79.73
2023-05-10T23:20:10.081Z,79.44
2023-05-10T23:22:37.543Z,79.34
2023-05-10T23:25:04.460Z,79.28
2023-05-10T23:27:31.223Z,79.48
2023-05-10T23:29:58.283Z,79.67
2023-05-10T23:32:25.027Z,80.11
2023-05-10T23:34:52.234Z,80.35
2023-05-10T23:37:18.936Z,80.39
2023-05-10T23:39:45.628Z,80.42
2023-05-10T23:42:12.193Z,80.33
2023-05-10T23:44:38.847Z,80.18
2023-05-10T23:47:06.131Z,79.99
2023-05-10T23:49:32.801Z,79.87
2023-05-10T23:51:59.473Z,79.78
2023-05-10T23:54:26.178Z,79.69
2023-05-10T23:56:52.829Z,79.72
2023-05-10T23:59:19.414Z,79.64
